sensor_id;sensor_type;location;lat;lon;timestamp;P1;durP1;ratioP1;P2;durP2;ratioP2
62582;SDS011;48641;51.676;5.808;2022-07-26T00:00:11;4.07;;;1.15;;
62582;SDS011;48641;51.676;5.808;2022-07-26T00:02:38;2.75;;;0.93;;
62582;SDS011;48641;51.676;5.808;2022-07-26T00:05:04;5.18;;;1.27;;
62582;SDS011;48641;51.676;5.808;2022-07-26T00:07:31;4.85;;;1.20;;
62582;SDS011;48641;51.676;5.808;2022-07-26T00:09:56;2.88;;;0.88;;
62582;SDS011;48641;51.676;5.808;2022-07-26T00:12:22;3.67;;;1.10;;
62582;SDS011;48641;51.676;5.808;2022-07-26T00:14:47;1.73;;;0.90;;
62582;SDS011;48641;51.676;5.808;2022-07-26T00:17:13;6.20;;;1.73;;
62582;SDS011;48641;51.676;5.808;2022-07-26T00:19:39;3.08;;;1.08;;
62582;SDS011;48641;51.676;5.808;2022-07-26T00:22:04;4.80;;;1.25;;
62582;SDS011;48641;51.676;5.808;2022-07-26T00:24:49;4.78;;;1.33;;
62582;SDS011;48641;51.676;5.808;2022-07-26T00:27:14;3.35;;;1.10;;
62582;SDS011;48641;51.676;5.808;2022-07-26T00:29:40;5.00;;;1.30;;
62582;SDS011;48641;51.676;5.808;2022-07-26T00:32:05;5.65;;;1.20;;
62582;SDS011;48641;51.676;5.808;2022-07-26T00:34:31;3.80;;;1.02;;
62582;SDS011;48641;51.676;5.808;2022-07-26T00:36:57;3.65;;;1.00;;
62582;SDS011;48641;51.676;5.808;2022-07-26T00:39:22;5.65;;;1.25;;
62582;SDS011;48641;51.676;5.808;2022-07-26T00:41:48;3.63;;;1.10;;
62582;SDS011;48641;51.676;5.808;2022-07-26T00:44:14;4.20;;;1.15;;
62582;SDS011;48641;51.676;5.808;2022-07-26T00:46:41;4.50;;;1.30;;
62582;SDS011;48641;51.676;5.808;2022-07-26T00:49:08;3.92;;;1.00;;
62582;SDS011;48641;51.676;5.808;2022-07-26T00:51:34;3.30;;;1.05;;
62582;SDS011;48641;51.676;5.808;2022-07-26T00:54:01;4.95;;;1.45;;
62582;SDS011;48641;51.676;5.808;2022-07-26T00:56:27;1.52;;;0.80;;
62582;SDS011;48641;51.676;5.808;2022-07-26T00:58:54;4.85;;;1.23;;
62582;SDS011;48641;51.676;5.808;2022-07-26T01:01:19;2.65;;;1.00;;
62582;SDS011;48641;51.676;5.808;2022-07-26T01:03:45;4.53;;;1.33;;
62582;SDS011;48641;51.676;5.808;2022-07-26T01:06:15;3.78;;;1.25;;
62582;SDS011;48641;51.676;5.808;2022-07-26T01:08:41;4.35;;;1.17;;
62582;SDS011;48641;51.676;5.808;2022-07-26T01:11:07;2.92;;;1.20;;
62582;SDS011;48641;51.676;5.808;2022-07-26T01:13:32;3.00;;;1.23;;
62582;SDS011;48641;51.676;5.808;2022-07-26T01:15:58;4.10;;;1.23;;
62582;SDS011;48641;51.676;5.808;2022-07-26T01:18:24;4.28;;;1.40;;
62582;SDS011;48641;51.676;5.808;2022-07-26T01:20:49;3.78;;;1.10;;
62582;SDS011;48641;51.676;5.808;2022-07-26T01:23:17;4.40;;;1.23;;
62582;SDS011;48641;51.676;5.808;2022-07-26T01:25:44;4.55;;;1.30;;
62582;SDS011;48641;51.676;5.808;2022-07-26T01:28:09;4.35;;;1.20;;
62582;SDS011;48641;51.676;5.808;2022-07-26T01:30:35;4.70;;;1.27;;
62582;SDS011;48641;51.676;5.808;2022-07-26T01:33:01;4.88;;;1.25;;
62582;SDS011;48641;51.676;5.808;2022-07-26T01:35:27;3.80;;;1.10;;
62582;SDS011;48641;51.676;5.808;2022-07-26T01:37:53;3.55;;;1.30;;
62582;SDS011;48641;51.676;5.808;2022-07-26T01:40:18;3.95;;;1.30;;
62582;SDS011;48641;51.676;5.808;2022-07-26T01:42:44;3.92;;;1.30;;
62582;SDS011;48641;51.676;5.808;2022-07-26T01:45:10;6.03;;;1.45;;
62582;SDS011;48641;51.676;5.808;2022-07-26T01:47:36;4.63;;;1.33;;
62582;SDS011;48641;51.676;5.808;2022-07-26T01:50:03;4.15;;;1.20;;
62582;SDS011;48641;51.676;5.808;2022-07-26T01:52:30;5.10;;;1.30;;
62582;SDS011;48641;51.676;5.808;2022-07-26T01:54:57;5.15;;;1.40;;
62582;SDS011;48641;51.676;5.808;2022-07-26T01:57:22;4.32;;;1.00;;
62582;SDS011;48641;51.676;5.808;2022-07-26T01:59:48;4.03;;;1.17;;
62582;SDS011;48641;51.676;5.808;2022-07-26T02:02:14;3.15;;;1.00;;
62582;SDS011;48641;51.676;5.808;2022-07-26T02:04:39;6.43;;;1.55;;
62582;SDS011;48641;51.676;5.808;2022-07-26T02:07:23;4.45;;;1.10;;
62582;SDS011;48641;51.676;5.808;2022-07-26T02:09:50;4.78;;;1.30;;
62582;SDS011;48641;51.676;5.808;2022-07-26T02:12:16;5.40;;;1.27;;
62582;SDS011;48641;51.676;5.808;2022-07-26T02:14:41;5.53;;;1.50;;
62582;SDS011;48641;51.676;5.808;2022-07-26T02:17:07;3.17;;;1.20;;
62582;SDS011;48641;51.676;5.808;2022-07-26T02:19:33;3.92;;;1.20;;
62582;SDS011;48641;51.676;5.808;2022-07-26T02:21:58;5.45;;;1.30;;
62582;SDS011;48641;51.676;5.808;2022-07-26T02:24:25;3.97;;;1.10;;
62582;SDS011;48641;51.676;5.808;2022-07-26T02:26:53;4.55;;;1.23;;
62582;SDS011;48641;51.676;5.808;2022-07-26T02:29:19;4.20;;;1.15;;
62582;SDS011;48641;51.676;5.808;2022-07-26T02:31:44;4.82;;;1.50;;
62582;SDS011;48641;51.676;5.808;2022-07-26T02:34:10;5.70;;;1.23;;
62582;SDS011;48641;51.676;5.808;2022-07-26T02:36:36;3.50;;;1.20;;
62582;SDS011;48641;51.676;5.808;2022-07-26T02:39:02;3.38;;;1.05;;
62582;SDS011;48641;51.676;5.808;2022-07-26T02:41:28;3.75;;;1.10;;
62582;SDS011;48641;51.676;5.808;2022-07-26T02:43:53;4.15;;;1.15;;
62582;SDS011;48641;51.676;5.808;2022-07-26T02:46:19;4.60;;;1.25;;
62582;SDS011;48641;51.676;5.808;2022-07-26T02:48:44;3.97;;;1.40;;
62582;SDS011;48641;51.676;5.808;2022-07-26T02:51:10;3.63;;;1.20;;
62582;SDS011;48641;51.676;5.808;2022-07-26T02:53:35;5.38;;;1.55;;
62582;SDS011;48641;51.676;5.808;2022-07-26T02:56:01;5.10;;;1.58;;
62582;SDS011;48641;51.676;5.808;2022-07-26T02:58:27;5.03;;;1.20;;
62582;SDS011;48641;51.676;5.808;2022-07-26T03:00:52;6.28;;;1.58;;
62582;SDS011;48641;51.676;5.808;2022-07-26T03:03:18;3.55;;;1.15;;
62582;SDS011;48641;51.676;5.808;2022-07-26T03:05:44;3.72;;;1.25;;
62582;SDS011;48641;51.676;5.808;2022-07-26T03:08:09;6.47;;;1.45;;
62582;SDS011;48641;51.676;5.808;2022-07-26T03:10:35;5.30;;;1.27;;
62582;SDS011;48641;51.676;5.808;2022-07-26T03:13:01;5.28;;;1.50;;
62582;SDS011;48641;51.676;5.808;2022-07-26T03:15:26;5.38;;;1.38;;
62582;SDS011;48641;51.676;5.808;2022-07-26T03:17:52;4.10;;;1.17;;
62582;SDS011;48641;51.676;5.808;2022-07-26T03:20:17;4.72;;;1.10;;
62582;SDS011;48641;51.676;5.808;2022-07-26T03:22:43;5.65;;;1.40;;
62582;SDS011;48641;51.676;5.808;2022-07-26T03:25:08;3.38;;;1.20;;
62582;SDS011;48641;51.676;5.808;2022-07-26T03:27:34;5.63;;;1.60;;
62582;SDS011;48641;51.676;5.808;2022-07-26T03:30:00;4.15;;;1.27;;
62582;SDS011;48641;51.676;5.808;2022-07-26T03:32:25;3.22;;;1.20;;
62582;SDS011;48641;51.676;5.808;2022-07-26T03:34:51;6.25;;;1.30;;
62582;SDS011;48641;51.676;5.808;2022-07-26T03:37:16;2.83;;;1.23;;
62582;SDS011;48641;51.676;5.808;2022-07-26T03:39:42;4.85;;;1.35;;
62582;SDS011;48641;51.676;5.808;2022-07-26T03:42:08;5.72;;;1.48;;
62582;SDS011;48641;51.676;5.808;2022-07-26T03:44:34;3.83;;;1.20;;
62582;SDS011;48641;51.676;5.808;2022-07-26T03:46:59;5.63;;;1.45;;
62582;SDS011;48641;51.676;5.808;2022-07-26T03:49:25;3.85;;;1.10;;
62582;SDS011;48641;51.676;5.808;2022-07-26T03:51:51;5.05;;;1.33;;
62582;SDS011;48641;51.676;5.808;2022-07-26T03:54:17;3.80;;;1.20;;
62582;SDS011;48641;51.676;5.808;2022-07-26T03:56:42;4.35;;;1.25;;
62582;SDS011;48641;51.676;5.808;2022-07-26T03:59:23;5.65;;;1.70;;
62582;SDS011;48641;51.676;5.808;2022-07-26T04:01:49;3.80;;;1.38;;
62582;SDS011;48641;51.676;5.808;2022-07-26T04:04:15;5.63;;;1.38;;
62582;SDS011;48641;51.676;5.808;2022-07-26T04:06:42;4.65;;;1.52;;
62582;SDS011;48641;51.676;5.808;2022-07-26T04:09:09;4.75;;;1.50;;
62582;SDS011;48641;51.676;5.808;2022-07-26T04:11:35;5.18;;;2.08;;
62582;SDS011;48641;51.676;5.808;2022-07-26T04:14:01;3.45;;;1.40;;
62582;SDS011;48641;51.676;5.808;2022-07-26T04:16:27;6.75;;;1.70;;
62582;SDS011;48641;51.676;5.808;2022-07-26T04:18:53;4.03;;;1.35;;
62582;SDS011;48641;51.676;5.808;2022-07-26T04:21:18;4.53;;;1.67;;
62582;SDS011;48641;51.676;5.808;2022-07-26T04:23:44;5.80;;;1.40;;
62582;SDS011;48641;51.676;5.808;2022-07-26T04:26:10;4.85;;;1.70;;
62582;SDS011;48641;51.676;5.808;2022-07-26T04:28:38;6.85;;;1.88;;
62582;SDS011;48641;51.676;5.808;2022-07-26T04:31:04;6.38;;;1.77;;
62582;SDS011;48641;51.676;5.808;2022-07-26T04:33:29;4.90;;;1.55;;
62582;SDS011;48641;51.676;5.808;2022-07-26T04:35:55;5.43;;;1.60;;
62582;SDS011;48641;51.676;5.808;2022-07-26T04:38:20;4.57;;;1.30;;
62582;SDS011;48641;51.676;5.808;2022-07-26T04:40:48;5.65;;;1.85;;
62582;SDS011;48641;51.676;5.808;2022-07-26T04:43:13;6.40;;;1.63;;
62582;SDS011;48641;51.676;5.808;2022-07-26T04:45:39;4.78;;;1.38;;
62582;SDS011;48641;51.676;5.808;2022-07-26T04:48:05;4.55;;;1.60;;
62582;SDS011;48641;51.676;5.808;2022-07-26T04:50:31;6.57;;;1.60;;
62582;SDS011;48641;51.676;5.808;2022-07-26T04:52:56;7.30;;;1.80;;
62582;SDS011;48641;51.676;5.808;2022-07-26T04:55:22;6.68;;;1.58;;
62582;SDS011;48641;51.676;5.808;2022-07-26T04:57:47;7.40;;;1.85;;
62582;SDS011;48641;51.676;5.808;2022-07-26T05:00:15;7.53;;;1.83;;
62582;SDS011;48641;51.676;5.808;2022-07-26T05:02:45;5.40;;;1.83;;
62582;SDS011;48641;51.676;5.808;2022-07-26T05:05:10;7.07;;;1.63;;
62582;SDS011;48641;51.676;5.808;2022-07-26T05:07:43;5.63;;;1.63;;
62582;SDS011;48641;51.676;5.808;2022-07-26T05:10:09;4.70;;;1.60;;
62582;SDS011;48641;51.676;5.808;2022-07-26T05:12:36;5.47;;;1.40;;
62582;SDS011;48641;51.676;5.808;2022-07-26T05:15:02;7.88;;;1.67;;
62582;SDS011;48641;51.676;5.808;2022-07-26T05:17:28;6.47;;;1.77;;
62582;SDS011;48641;51.676;5.808;2022-07-26T05:19:53;5.45;;;1.50;;
62582;SDS011;48641;51.676;5.808;2022-07-26T05:22:19;4.43;;;1.58;;
62582;SDS011;48641;51.676;5.808;2022-07-26T05:24:44;5.03;;;1.60;;
62582;SDS011;48641;51.676;5.808;2022-07-26T05:27:10;6.60;;;1.70;;
62582;SDS011;48641;51.676;5.808;2022-07-26T05:29:36;6.05;;;1.50;;
62582;SDS011;48641;51.676;5.808;2022-07-26T05:32:01;5.25;;;1.65;;
62582;SDS011;48641;51.676;5.808;2022-07-26T05:34:27;5.70;;;1.85;;
62582;SDS011;48641;51.676;5.808;2022-07-26T05:36:53;6.75;;;1.65;;
62582;SDS011;48641;51.676;5.808;2022-07-26T05:39:18;6.05;;;1.63;;
62582;SDS011;48641;51.676;5.808;2022-07-26T05:41:44;7.55;;;1.77;;
62582;SDS011;48641;51.676;5.808;2022-07-26T05:44:09;8.05;;;1.70;;
62582;SDS011;48641;51.676;5.808;2022-07-26T05:46:35;4.85;;;1.92;;
62582;SDS011;48641;51.676;5.808;2022-07-26T05:49:04;4.90;;;1.63;;
62582;SDS011;48641;51.676;5.808;2022-07-26T05:51:30;5.85;;;1.60;;
62582;SDS011;48641;51.676;5.808;2022-07-26T05:53:56;5.95;;;1.50;;
62582;SDS011;48641;51.676;5.808;2022-07-26T05:56:21;6.95;;;1.80;;
62582;SDS011;48641;51.676;5.808;2022-07-26T05:58:47;7.60;;;1.90;;
62582;SDS011;48641;51.676;5.808;2022-07-26T06:01:13;5.32;;;1.40;;
62582;SDS011;48641;51.676;5.808;2022-07-26T06:03:38;7.53;;;1.73;;
62582;SDS011;48641;51.676;5.808;2022-07-26T06:06:04;5.63;;;1.60;;
62582;SDS011;48641;51.676;5.808;2022-07-26T06:08:30;4.85;;;1.40;;
62582;SDS011;48641;51.676;5.808;2022-07-26T06:10:56;6.70;;;1.80;;
62582;SDS011;48641;51.676;5.808;2022-07-26T06:13:21;5.65;;;1.90;;
62582;SDS011;48641;51.676;5.808;2022-07-26T06:15:47;5.93;;;1.52;;
62582;SDS011;48641;51.676;5.808;2022-07-26T06:18:13;6.10;;;1.73;;
62582;SDS011;48641;51.676;5.808;2022-07-26T06:20:42;7.03;;;1.60;;
62582;SDS011;48641;51.676;5.808;2022-07-26T06:23:09;3.72;;;1.17;;
62582;SDS011;48641;51.676;5.808;2022-07-26T06:25:35;6.45;;;1.67;;
62582;SDS011;48641;51.676;5.808;2022-07-26T06:28:02;5.55;;;1.40;;
62582;SDS011;48641;51.676;5.808;2022-07-26T06:30:28;4.30;;;1.52;;
62582;SDS011;48641;51.676;5.808;2022-07-26T06:32:54;4.75;;;1.40;;
62582;SDS011;48641;51.676;5.808;2022-07-26T06:35:20;4.90;;;1.55;;
62582;SDS011;48641;51.676;5.808;2022-07-26T06:37:45;5.40;;;1.58;;
62582;SDS011;48641;51.676;5.808;2022-07-26T06:40:11;6.32;;;1.52;;
62582;SDS011;48641;51.676;5.808;2022-07-26T06:42:37;6.25;;;1.60;;
62582;SDS011;48641;51.676;5.808;2022-07-26T06:45:03;4.53;;;1.67;;
62582;SDS011;48641;51.676;5.808;2022-07-26T06:47:29;5.38;;;1.67;;
62582;SDS011;48641;51.676;5.808;2022-07-26T06:49:55;5.93;;;1.70;;
62582;SDS011;48641;51.676;5.808;2022-07-26T06:52:20;6.10;;;1.70;;
62582;SDS011;48641;51.676;5.808;2022-07-26T06:54:46;3.88;;;1.35;;
62582;SDS011;48641;51.676;5.808;2022-07-26T06:57:12;4.15;;;1.38;;
62582;SDS011;48641;51.676;5.808;2022-07-26T06:59:37;4.43;;;1.40;;
62582;SDS011;48641;51.676;5.808;2022-07-26T07:02:03;5.45;;;1.40;;
62582;SDS011;48641;51.676;5.808;2022-07-26T07:04:29;6.15;;;1.60;;
62582;SDS011;48641;51.676;5.808;2022-07-26T07:06:57;4.78;;;1.50;;
62582;SDS011;48641;51.676;5.808;2022-07-26T07:09:27;5.60;;;1.80;;
62582;SDS011;48641;51.676;5.808;2022-07-26T07:11:53;3.97;;;1.35;;
62582;SDS011;48641;51.676;5.808;2022-07-26T07:14:19;4.55;;;1.55;;
62582;SDS011;48641;51.676;5.808;2022-07-26T07:16:44;4.55;;;1.40;;
62582;SDS011;48641;51.676;5.808;2022-07-26T07:19:10;5.65;;;1.40;;
62582;SDS011;48641;51.676;5.808;2022-07-26T07:21:36;6.07;;;1.90;;
62582;SDS011;48641;51.676;5.808;2022-07-26T07:24:01;4.00;;;1.50;;
62582;SDS011;48641;51.676;5.808;2022-07-26T07:26:27;5.03;;;1.60;;
62582;SDS011;48641;51.676;5.808;2022-07-26T07:28:53;4.88;;;1.75;;
62582;SDS011;48641;51.676;5.808;2022-07-26T07:31:18;5.30;;;1.88;;
62582;SDS011;48641;51.676;5.808;2022-07-26T07:33:44;5.53;;;1.95;;
62582;SDS011;48641;51.676;5.808;2022-07-26T07:36:09;5.20;;;2.10;;
62582;SDS011;48641;51.676;5.808;2022-07-26T07:38:35;7.07;;;1.85;;
62582;SDS011;48641;51.676;5.808;2022-07-26T07:41:00;4.47;;;1.80;;
62582;SDS011;48641;51.676;5.808;2022-07-26T07:43:26;6.43;;;1.95;;
62582;SDS011;48641;51.676;5.808;2022-07-26T07:45:52;6.55;;;2.05;;
62582;SDS011;48641;51.676;5.808;2022-07-26T07:48:17;7.00;;;1.90;;
62582;SDS011;48641;51.676;5.808;2022-07-26T07:50:43;5.55;;;1.85;;
62582;SDS011;48641;51.676;5.808;2022-07-26T07:53:09;3.67;;;1.80;;
62582;SDS011;48641;51.676;5.808;2022-07-26T07:55:34;4.82;;;1.77;;
62582;SDS011;48641;51.676;5.808;2022-07-26T07:58:00;5.88;;;1.98;;
62582;SDS011;48641;51.676;5.808;2022-07-26T08:00:25;5.05;;;2.13;;
62582;SDS011;48641;51.676;5.808;2022-07-26T08:02:51;6.35;;;2.03;;
62582;SDS011;48641;51.676;5.808;2022-07-26T08:05:17;6.22;;;1.92;;
62582;SDS011;48641;51.676;5.808;2022-07-26T08:07:42;5.05;;;1.90;;
62582;SDS011;48641;51.676;5.808;2022-07-26T08:10:08;6.25;;;2.20;;
62582;SDS011;48641;51.676;5.808;2022-07-26T08:12:34;6.30;;;2.38;;
62582;SDS011;48641;51.676;5.808;2022-07-26T08:15:00;6.05;;;2.47;;
62582;SDS011;48641;51.676;5.808;2022-07-26T08:17:26;5.18;;;2.30;;
62582;SDS011;48641;51.676;5.808;2022-07-26T08:19:51;6.28;;;2.05;;
62582;SDS011;48641;51.676;5.808;2022-07-26T08:22:17;5.70;;;2.40;;
62582;SDS011;48641;51.676;5.808;2022-07-26T08:24:43;4.28;;;2.03;;
62582;SDS011;48641;51.676;5.808;2022-07-26T08:27:10;4.68;;;2.17;;
62582;SDS011;48641;51.676;5.808;2022-07-26T08:29:36;4.25;;;2.17;;
62582;SDS011;48641;51.676;5.808;2022-07-26T08:32:02;4.65;;;2.22;;
62582;SDS011;48641;51.676;5.808;2022-07-26T08:34:28;4.65;;;1.73;;
62582;SDS011;48641;51.676;5.808;2022-07-26T08:36:53;5.82;;;1.83;;
62582;SDS011;48641;51.676;5.808;2022-07-26T08:39:19;4.97;;;2.00;;
62582;SDS011;48641;51.676;5.808;2022-07-26T08:41:44;4.25;;;1.70;;
62582;SDS011;48641;51.676;5.808;2022-07-26T08:44:10;3.15;;;1.63;;
62582;SDS011;48641;51.676;5.808;2022-07-26T08:46:36;3.70;;;1.60;;
62582;SDS011;48641;51.676;5.808;2022-07-26T08:49:04;4.90;;;1.60;;
62582;SDS011;48641;51.676;5.808;2022-07-26T08:51:31;3.75;;;1.70;;
62582;SDS011;48641;51.676;5.808;2022-07-26T08:53:58;3.67;;;1.50;;
62582;SDS011;48641;51.676;5.808;2022-07-26T08:56:25;5.32;;;1.30;;
62582;SDS011;48641;51.676;5.808;2022-07-26T08:58:51;4.13;;;1.33;;
62582;SDS011;48641;51.676;5.808;2022-07-26T09:01:17;3.17;;;1.30;;
62582;SDS011;48641;51.676;5.808;2022-07-26T09:03:43;3.03;;;1.30;;
62582;SDS011;48641;51.676;5.808;2022-07-26T09:06:09;3.78;;;1.40;;
62582;SDS011;48641;51.676;5.808;2022-07-26T09:08:42;3.58;;;1.25;;
62582;SDS011;48641;51.676;5.808;2022-07-26T09:13:51;2.60;;;1.10;;
62582;SDS011;48641;51.676;5.808;2022-07-26T09:16:19;3.25;;;1.20;;
62582;SDS011;48641;51.676;5.808;2022-07-26T09:18:45;2.10;;;0.90;;
62582;SDS011;48641;51.676;5.808;2022-07-26T09:23:56;2.63;;;0.80;;
62582;SDS011;48641;51.676;5.808;2022-07-26T09:26:22;2.85;;;0.93;;
62582;SDS011;48641;51.676;5.808;2022-07-26T09:29:01;1.92;;;0.82;;
62582;SDS011;48641;51.676;5.808;2022-07-26T09:31:29;2.45;;;0.88;;
62582;SDS011;48641;51.676;5.808;2022-07-26T09:33:55;3.08;;;0.90;;
62582;SDS011;48641;51.676;5.808;2022-07-26T09:36:22;2.70;;;1.00;;
62582;SDS011;48641;51.676;5.808;2022-07-26T09:38:49;3.30;;;0.80;;
62582;SDS011;48641;51.676;5.808;2022-07-26T09:41:20;2.78;;;0.80;;
62582;SDS011;48641;51.676;5.808;2022-07-26T09:43:47;3.42;;;1.10;;
62582;SDS011;48641;51.676;5.808;2022-07-26T09:46:14;2.50;;;0.90;;
62582;SDS011;48641;51.676;5.808;2022-07-26T09:48:39;3.72;;;0.85;;
62582;SDS011;48641;51.676;5.808;2022-07-26T09:51:06;3.20;;;1.10;;
62582;SDS011;48641;51.676;5.808;2022-07-26T09:53:43;3.22;;;0.75;;
62582;SDS011;48641;51.676;5.808;2022-07-26T09:56:09;3.90;;;0.80;;
62582;SDS011;48641;51.676;5.808;2022-07-26T09:58:35;3.17;;;0.95;;
62582;SDS011;48641;51.676;5.808;2022-07-26T10:01:03;3.60;;;0.90;;
62582;SDS011;48641;51.676;5.808;2022-07-26T10:03:30;2.92;;;0.90;;
62582;SDS011;48641;51.676;5.808;2022-07-26T10:05:57;2.95;;;0.80;;
62582;SDS011;48641;51.676;5.808;2022-07-26T10:08:23;2.35;;;0.82;;
62582;SDS011;48641;51.676;5.808;2022-07-26T10:10:51;2.30;;;0.70;;
62582;SDS011;48641;51.676;5.808;2022-07-26T10:13:20;2.92;;;0.73;;
62582;SDS011;48641;51.676;5.808;2022-07-26T10:15:47;5.53;;;1.00;;
62582;SDS011;48641;51.676;5.808;2022-07-26T10:31:42;3.92;;;0.73;;
62582;SDS011;48641;51.676;5.808;2022-07-26T10:34:09;2.45;;;0.60;;
62582;SDS011;48641;51.676;5.808;2022-07-26T10:36:36;3.15;;;0.90;;
62582;SDS011;48641;51.676;5.808;2022-07-26T10:39:13;2.17;;;0.52;;
62582;SDS011;48641;51.676;5.808;2022-07-26T10:44:22;2.63;;;0.60;;
62582;SDS011;48641;51.676;5.808;2022-07-26T10:49:34;2.22;;;0.55;;
62582;SDS011;48641;51.676;5.808;2022-07-26T10:52:10;1.85;;;0.70;;
62582;SDS011;48641;51.676;5.808;2022-07-26T10:57:20;1.13;;;0.60;;
62582;SDS011;48641;51.676;5.808;2022-07-26T10:59:46;2.40;;;0.50;;
62582;SDS011;48641;51.676;5.808;2022-07-26T11:02:18;1.85;;;0.68;;
62582;SDS011;48641;51.676;5.808;2022-07-26T11:04:45;2.78;;;0.60;;
62582;SDS011;48641;51.676;5.808;2022-07-26T11:07:11;3.75;;;0.75;;
62582;SDS011;48641;51.676;5.808;2022-07-26T11:09:37;2.85;;;0.80;;
62582;SDS011;48641;51.676;5.808;2022-07-26T11:14:41;1.70;;;0.88;;
62582;SDS011;48641;51.676;5.808;2022-07-26T11:17:06;2.88;;;0.70;;
62582;SDS011;48641;51.676;5.808;2022-07-26T11:19:37;3.05;;;0.88;;
62582;SDS011;48641;51.676;5.808;2022-07-26T11:22:04;1.95;;;0.55;;
62582;SDS011;48641;51.676;5.808;2022-07-26T11:24:29;3.35;;;0.90;;
62582;SDS011;48641;51.676;5.808;2022-07-26T11:26:55;4.55;;;0.70;;
62582;SDS011;48641;51.676;5.808;2022-07-26T11:29:26;4.65;;;0.80;;
62582;SDS011;48641;51.676;5.808;2022-07-26T11:31:53;3.60;;;0.73;;
62582;SDS011;48641;51.676;5.808;2022-07-26T11:34:19;6.00;;;0.93;;
62582;SDS011;48641;51.676;5.808;2022-07-26T11:36:47;4.28;;;0.90;;
62582;SDS011;48641;51.676;5.808;2022-07-26T11:39:14;2.67;;;0.60;;
62582;SDS011;48641;51.676;5.808;2022-07-26T11:41:45;2.47;;;0.80;;
62582;SDS011;48641;51.676;5.808;2022-07-26T11:44:17;4.88;;;0.70;;
62582;SDS011;48641;51.676;5.808;2022-07-26T11:46:44;4.35;;;0.70;;
62582;SDS011;48641;51.676;5.808;2022-07-26T11:49:14;5.38;;;0.95;;
62582;SDS011;48641;51.676;5.808;2022-07-26T11:51:48;3.05;;;0.70;;
62582;SDS011;48641;51.676;5.808;2022-07-26T11:54:15;3.97;;;0.90;;
62582;SDS011;48641;51.676;5.808;2022-07-26T11:56:48;4.25;;;0.70;;
62582;SDS011;48641;51.676;5.808;2022-07-26T11:59:21;1.88;;;0.68;;
62582;SDS011;48641;51.676;5.808;2022-07-26T12:01:49;1.75;;;0.50;;
62582;SDS011;48641;51.676;5.808;2022-07-26T12:04:25;1.85;;;0.65;;
62582;SDS011;48641;51.676;5.808;2022-07-26T12:06:56;3.00;;;0.60;;
62582;SDS011;48641;51.676;5.808;2022-07-26T12:09:31;2.25;;;0.73;;
62582;SDS011;48641;51.676;5.808;2022-07-26T12:11:59;2.78;;;0.55;;
62582;SDS011;48641;51.676;5.808;2022-07-26T12:14:29;5.30;;;0.80;;
62582;SDS011;48641;51.676;5.808;2022-07-26T12:16:57;3.03;;;0.55;;
62582;SDS011;48641;51.676;5.808;2022-07-26T12:19:24;4.53;;;0.77;;
62582;SDS011;48641;51.676;5.808;2022-07-26T12:21:53;3.78;;;0.60;;
62582;SDS011;48641;51.676;5.808;2022-07-26T12:24:40;3.25;;;0.73;;
62582;SDS011;48641;51.676;5.808;2022-07-26T12:27:16;3.90;;;0.60;;
62582;SDS011;48641;51.676;5.808;2022-07-26T12:29:45;0.93;;;0.60;;
62582;SDS011;48641;51.676;5.808;2022-07-26T12:32:16;2.63;;;0.60;;
62582;SDS011;48641;51.676;5.808;2022-07-26T12:34:57;2.77;;;0.60;;
62582;SDS011;48641;51.676;5.808;2022-07-26T12:37:50;3.65;;;0.80;;
62582;SDS011;48641;51.676;5.808;2022-07-26T12:40:20;2.33;;;0.68;;
62582;SDS011;48641;51.676;5.808;2022-07-26T12:45:24;3.92;;;0.90;;
62582;SDS011;48641;51.676;5.808;2022-07-26T12:47:54;4.07;;;0.80;;
62582;SDS011;48641;51.676;5.808;2022-07-26T12:50:23;5.28;;;1.10;;
62582;SDS011;48641;51.676;5.808;2022-07-26T12:52:49;19.20;;;1.88;;
62582;SDS011;48641;51.676;5.808;2022-07-26T12:55:16;328.23;;;27.98;;
62582;SDS011;48641;51.676;5.808;2022-07-26T12:57:45;218.35;;;17.58;;
62582;SDS011;48641;51.676;5.808;2022-07-26T13:00:12;271.05;;;21.90;;
62582;SDS011;48641;51.676;5.808;2022-07-26T13:02:42;246.80;;;21.15;;
62582;SDS011;48641;51.676;5.808;2022-07-26T13:05:08;116.32;;;12.50;;
62582;SDS011;48641;51.676;5.808;2022-07-26T13:07:34;92.70;;;10.45;;
62582;SDS011;48641;51.676;5.808;2022-07-26T13:10:00;94.78;;;9.75;;
62582;SDS011;48641;51.676;5.808;2022-07-26T13:12:27;90.15;;;9.32;;
62582;SDS011;48641;51.676;5.808;2022-07-26T13:14:52;67.65;;;7.45;;
62582;SDS011;48641;51.676;5.808;2022-07-26T13:17:18;59.30;;;8.02;;
62582;SDS011;48641;51.676;5.808;2022-07-26T13:19:43;59.63;;;6.82;;
62582;SDS011;48641;51.676;5.808;2022-07-26T13:22:09;51.20;;;6.03;;
62582;SDS011;48641;51.676;5.808;2022-07-26T13:24:35;50.65;;;5.53;;
62582;SDS011;48641;51.676;5.808;2022-07-26T13:27:02;46.25;;;4.85;;
62582;SDS011;48641;51.676;5.808;2022-07-26T13:29:29;40.53;;;4.43;;
62582;SDS011;48641;51.676;5.808;2022-07-26T13:31:55;32.30;;;3.42;;
62582;SDS011;48641;51.676;5.808;2022-07-26T13:34:22;28.90;;;3.97;;
62582;SDS011;48641;51.676;5.808;2022-07-26T13:36:48;21.95;;;3.42;;
62582;SDS011;48641;51.676;5.808;2022-07-26T13:39:14;16.70;;;2.45;;
62582;SDS011;48641;51.676;5.808;2022-07-26T13:41:40;14.27;;;2.20;;
62582;SDS011;48641;51.676;5.808;2022-07-26T13:44:06;21.05;;;2.60;;
62582;SDS011;48641;51.676;5.808;2022-07-26T13:46:32;13.90;;;1.95;;
62582;SDS011;48641;51.676;5.808;2022-07-26T13:48:58;15.63;;;2.05;;
62582;SDS011;48641;51.676;5.808;2022-07-26T13:51:24;13.43;;;1.95;;
62582;SDS011;48641;51.676;5.808;2022-07-26T13:54:11;13.68;;;1.70;;
62582;SDS011;48641;51.676;5.808;2022-07-26T13:56:38;9.02;;;1.70;;
62582;SDS011;48641;51.676;5.808;2022-07-26T13:59:04;12.45;;;1.60;;
62582;SDS011;48641;51.676;5.808;2022-07-26T14:01:30;6.90;;;1.20;;
62582;SDS011;48641;51.676;5.808;2022-07-26T14:03:57;8.20;;;1.50;;
62582;SDS011;48641;51.676;5.808;2022-07-26T14:06:22;6.25;;;1.30;;
62582;SDS011;48641;51.676;5.808;2022-07-26T14:08:50;7.78;;;1.13;;
62582;SDS011;48641;51.676;5.808;2022-07-26T14:11:15;6.78;;;1.20;;
62582;SDS011;48641;51.676;5.808;2022-07-26T14:13:41;8.05;;;1.55;;
62582;SDS011;48641;51.676;5.808;2022-07-26T14:16:07;5.30;;;0.93;;
62582;SDS011;48641;51.676;5.808;2022-07-26T14:18:33;4.05;;;1.10;;
62582;SDS011;48641;51.676;5.808;2022-07-26T14:20:59;6.95;;;1.10;;
62582;SDS011;48641;51.676;5.808;2022-07-26T14:23:25;6.07;;;1.45;;
62582;SDS011;48641;51.676;5.808;2022-07-26T14:25:50;5.35;;;1.10;;
62582;SDS011;48641;51.676;5.808;2022-07-26T14:28:16;4.00;;;0.93;;
62582;SDS011;48641;51.676;5.808;2022-07-26T14:30:41;8.20;;;1.33;;
62582;SDS011;48641;51.676;5.808;2022-07-26T14:33:07;3.90;;;1.00;;
62582;SDS011;48641;51.676;5.808;2022-07-26T14:35:33;5.72;;;1.08;;
62582;SDS011;48641;51.676;5.808;2022-07-26T14:37:59;3.35;;;0.90;;
62582;SDS011;48641;51.676;5.808;2022-07-26T14:40:24;10.20;;;1.30;;
62582;SDS011;48641;51.676;5.808;2022-07-26T14:42:50;3.95;;;0.95;;
62582;SDS011;48641;51.676;5.808;2022-07-26T14:45:16;3.42;;;0.90;;
62582;SDS011;48641;51.676;5.808;2022-07-26T14:47:41;4.78;;;1.00;;
62582;SDS011;48641;51.676;5.808;2022-07-26T14:50:08;3.38;;;0.68;;
62582;SDS011;48641;51.676;5.808;2022-07-26T14:52:36;5.00;;;1.10;;
62582;SDS011;48641;51.676;5.808;2022-07-26T14:55:03;5.78;;;1.02;;
62582;SDS011;48641;51.676;5.808;2022-07-26T14:57:29;3.65;;;1.00;;
62582;SDS011;48641;51.676;5.808;2022-07-26T14:59:55;5.03;;;0.95;;
62582;SDS011;48641;51.676;5.808;2022-07-26T15:02:20;4.43;;;0.88;;
62582;SDS011;48641;51.676;5.808;2022-07-26T15:04:46;3.30;;;1.00;;
62582;SDS011;48641;51.676;5.808;2022-07-26T15:07:12;4.50;;;0.90;;
62582;SDS011;48641;51.676;5.808;2022-07-26T15:09:37;6.30;;;1.23;;
62582;SDS011;48641;51.676;5.808;2022-07-26T15:12:03;4.50;;;1.10;;
62582;SDS011;48641;51.676;5.808;2022-07-26T15:14:29;5.78;;;1.10;;